createdAt,value
2022-12-04T00:00:34.713Z,21.30
2022-12-04T00:03:02.058Z,25.67
2022-12-04T00:05:29.383Z,26.23
2022-12-04T00:07:56.656Z,25.85
2022-12-04T00:10:23.993Z,28.67
2022-12-04T00:12:51.266Z,22.50
2022-12-04T00:15:26.832Z,26.02
2022-12-04T00:17:54.760Z,22.40
2022-12-04T00:20:23.145Z,25.23
2022-12-04T00:22:50.433Z,26.70
2022-12-04T00:25:17.768Z,19.65
2022-12-04T00:27:45.128Z,27.27
2022-12-04T00:30:12.831Z,20.85
2022-12-04T00:32:40.044Z,23.40
2022-12-04T00:35:07.683Z,24.45
2022-12-04T00:37:34.939Z,31.70
2022-12-04T00:40:02.171Z,32.03
2022-12-04T00:42:29.370Z,20.40
2022-12-04T00:44:56.561Z,29.23
2022-12-04T00:47:23.722Z,27.88
2022-12-04T00:49:51.179Z,26.00
2022-12-04T00:52:18.502Z,31.65
2022-12-04T00:54:45.920Z,24.00
2022-12-04T00:57:13.168Z,25.00
2022-12-04T00:59:40.412Z,27.08
2022-12-04T01:02:07.578Z,30.40
2022-12-04T01:04:34.819Z,24.52
2022-12-04T01:07:05.126Z,26.77
2022-12-04T01:09:33.243Z,26.50
2022-12-04T01:12:00.484Z,26.17
2022-12-04T01:14:27.677Z,26.10
2022-12-04T01:16:55.058Z,29.40
2022-12-04T01:19:22.529Z,25.00
2022-12-04T01:21:49.891Z,32.38
2022-12-04T01:24:17.119Z,30.08
2022-12-04T01:26:44.293Z,29.88
2022-12-04T01:29:11.511Z,31.83
2022-12-04T01:31:38.741Z,24.63
2022-12-04T01:34:05.949Z,30.55
2022-12-04T01:36:33.223Z,27.35
2022-12-04T01:39:00.387Z,35.92
2022-12-04T01:41:30.089Z,29.90
2022-12-04T01:44:10.931Z,27.40
2022-12-04T01:46:39.141Z,31.13
2022-12-04T01:49:09.653Z,36.70
2022-12-04T01:51:41.355Z,30.90
2022-12-04T01:54:20.524Z,33.92
2022-12-04T01:56:53.629Z,33.10
2022-12-04T01:59:24.494Z,33.80
2022-12-04T02:02:04.963Z,31.83
2022-12-04T02:04:33.469Z,26.13
2022-12-04T02:07:00.875Z,28.73
2022-12-04T02:09:30.903Z,26.27
2022-12-04T02:12:25.521Z,33.33
2022-12-04T02:15:04.754Z,25.23
2022-12-04T02:18:09.197Z,30.63
2022-12-04T02:21:09.443Z,34.25
2022-12-04T02:23:55.896Z,30.27
2022-12-04T02:26:22.997Z,25.52
2022-12-04T02:29:06.682Z,23.23
2022-12-04T02:31:55.130Z,26.85
2022-12-04T02:34:28.523Z,26.48
2022-12-04T02:37:10.403Z,27.75
2022-12-04T02:39:49.140Z,29.55
2022-12-04T02:42:57.592Z,29.20
2022-12-04T02:45:30.158Z,19.52
2022-12-04T02:48:00.677Z,23.13
2022-12-04T02:50:30.151Z,19.75
2022-12-04T02:53:22.352Z,27.42
2022-12-04T02:56:00.404Z,26.95
2022-12-04T02:58:54.062Z,22.05
2022-12-04T03:01:27.092Z,25.15
2022-12-04T03:04:16.201Z,25.20
2022-12-04T03:06:47.403Z,24.95
2022-12-04T03:09:20.507Z,29.65
2022-12-04T03:11:56.802Z,29.35
2022-12-04T03:14:33.751Z,31.15
2022-12-04T03:17:08.276Z,29.85
2022-12-04T03:19:45.515Z,37.17
2022-12-04T03:22:16.476Z,31.55
2022-12-04T03:24:52.172Z,30.52
2022-12-04T03:27:38.714Z,49.15
2022-12-04T03:30:12.711Z,30.20
2022-12-04T03:32:51.173Z,38.47
2022-12-04T03:35:32.067Z,35.25
2022-12-04T03:38:07.869Z,37.88
2022-12-04T03:40:41.416Z,36.17
2022-12-04T03:43:16.397Z,36.60
2022-12-04T03:45:58.149Z,32.47
2022-12-04T03:48:54.434Z,40.80
2022-12-04T03:51:39.108Z,37.70
2022-12-04T03:54:17.529Z,34.63
2022-12-04T03:56:54.492Z,28.20
2022-12-04T03:59:27.943Z,32.55
2022-12-04T04:01:58.116Z,37.28
2022-12-04T04:04:34.807Z,47.55
2022-12-04T04:07:10.748Z,38.72
2022-12-04T04:09:44.161Z,37.20
2022-12-04T04:12:22.163Z,35.25
2022-12-04T04:15:19.068Z,47.70
2022-12-04T04:18:07.635Z,42.58
2022-12-04T04:21:02.678Z,45.38
2022-12-04T04:23:54.707Z,44.88
2022-12-04T04:26:24.308Z,44.72
2022-12-04T04:28:51.456Z,39.80
2022-12-04T04:31:43.292Z,35.40
2022-12-04T04:34:38.132Z,36.78
2022-12-04T04:37:31.345Z,44.22
2022-12-04T04:40:07.168Z,42.60
2022-12-04T04:43:09.360Z,35.85
2022-12-04T04:45:40.876Z,40.03
2022-12-04T04:48:34.269Z,43.35
2022-12-04T04:51:04.203Z,37.22
2022-12-04T04:53:39.024Z,43.17
2022-12-04T04:56:07.388Z,42.42
2022-12-04T04:58:34.667Z,39.72
2022-12-04T05:01:04.567Z,54.58
2022-12-04T05:03:32.066Z,36.63
2022-12-04T05:05:59.428Z,42.65
2022-12-04T05:08:26.731Z,36.88
2022-12-04T05:10:54.199Z,44.55
2022-12-04T05:13:23.005Z,38.03
2022-12-04T05:16:01.724Z,33.55
2022-12-04T05:18:29.999Z,47.92
2022-12-04T05:20:57.740Z,50.20
2022-12-04T05:23:25.163Z,44.65
2022-12-04T05:26:00.167Z,40.42
2022-12-04T05:28:27.956Z,38.75
2022-12-04T05:31:01.258Z,44.90
2022-12-04T05:33:29.208Z,40.00
2022-12-04T05:36:08.522Z,37.67
2022-12-04T05:38:36.216Z,42.13
2022-12-04T05:41:05.206Z,45.13
2022-12-04T05:43:33.650Z,42.35
2022-12-04T05:46:06.327Z,40.50
2022-12-04T05:48:34.910Z,39.40
2022-12-04T05:51:09.731Z,37.85
2022-12-04T05:53:37.521Z,40.40
2022-12-04T05:56:06.237Z,36.10
2022-12-04T05:58:37.971Z,38.08
2022-12-04T06:01:10.362Z,41.33
2022-12-04T06:03:37.793Z,40.25
2022-12-04T06:06:05.126Z,35.13
2022-12-04T06:08:32.353Z,40.70
2022-12-04T06:10:59.630Z,37.25
2022-12-04T06:13:26.885Z,37.35
2022-12-04T06:15:54.298Z,36.75
2022-12-04T06:18:21.643Z,32.85
2022-12-04T06:20:48.923Z,32.13
2022-12-04T06:23:16.140Z,39.95
2022-12-04T06:25:43.395Z,33.90
2022-12-04T06:28:10.636Z,49.03
2022-12-04T06:30:37.969Z,33.90
2022-12-04T06:33:05.278Z,39.08
2022-12-04T06:35:32.618Z,37.33
2022-12-04T06:37:59.850Z,41.92
2022-12-04T06:40:27.182Z,36.00
2022-12-04T06:42:54.346Z,39.97
2022-12-04T06:45:22.323Z,44.50
2022-12-04T06:47:49.502Z,37.20
2022-12-04T06:50:16.692Z,35.05
2022-12-04T06:52:43.916Z,35.05
2022-12-04T06:55:12.467Z,35.25
2022-12-04T06:57:39.617Z,31.00
2022-12-04T07:00:07.460Z,31.23
2022-12-04T07:02:34.766Z,40.65
2022-12-04T07:05:01.995Z,36.78
2022-12-04T07:07:29.216Z,36.78
2022-12-04T07:09:56.568Z,38.00
2022-12-04T07:12:23.933Z,32.65
2022-12-04T07:14:51.168Z,35.38
2022-12-04T07:17:18.411Z,36.17
2022-12-04T07:19:45.711Z,34.03
2022-12-04T07:22:13.011Z,36.55
2022-12-04T07:24:40.180Z,37.53
2022-12-04T07:27:07.422Z,31.35
2022-12-04T07:29:34.601Z,32.10
2022-12-04T07:32:01.870Z,33.92
2022-12-04T07:34:29.595Z,27.85
2022-12-04T07:36:56.732Z,33.22
2022-12-04T07:39:23.897Z,35.60
2022-12-04T07:41:51.032Z,40.70
2022-12-04T07:44:18.840Z,33.15
2022-12-04T07:46:46.110Z,36.33
2022-12-04T07:49:13.815Z,27.25
2022-12-04T07:51:41.099Z,39.28
2022-12-04T07:54:09.007Z,32.55
2022-12-04T07:56:36.298Z,29.98
2022-12-04T07:59:03.565Z,28.63
2022-12-04T08:01:31.672Z,29.40
2022-12-04T08:04:00.666Z,29.40
2022-12-04T08:06:29.580Z,28.40
2022-12-04T08:08:57.558Z,27.40
2022-12-04T08:11:26.905Z,30.98
2022-12-04T08:14:02.574Z,26.17
2022-12-04T08:16:32.045Z,29.30
2022-12-04T08:19:00.862Z,30.42
2022-12-04T08:21:30.157Z,26.38
2022-12-04T08:23:59.143Z,25.85
2022-12-04T08:26:28.451Z,26.90
2022-12-04T08:28:57.315Z,27.50
2022-12-04T08:31:27.619Z,28.80
2022-12-04T08:33:57.148Z,24.85
2022-12-04T08:36:24.982Z,30.48
2022-12-04T08:38:52.462Z,34.28
2022-12-04T08:41:24.053Z,26.15
2022-12-04T08:43:54.875Z,29.25
2022-12-04T08:46:24.945Z,28.30
2022-12-04T08:48:52.337Z,24.52
2022-12-04T08:51:22.768Z,27.70
2022-12-04T08:53:57.111Z,25.80
2022-12-04T08:56:25.949Z,21.73
2022-12-04T08:58:53.667Z,20.88
2022-12-04T09:01:21.008Z,18.10
2022-12-04T09:03:48.379Z,22.10
2022-12-04T09:06:17.899Z,22.83
2022-12-04T09:08:45.343Z,19.80
2022-12-04T09:11:18.811Z,25.15
2022-12-04T09:13:46.271Z,20.25
2022-12-04T09:16:16.763Z,20.63
2022-12-04T09:18:44.402Z,21.52
2022-12-04T09:21:13.547Z,19.10
2022-12-04T09:23:41.093Z,23.27
2022-12-04T09:26:19.130Z,34.08
2022-12-04T09:28:47.180Z,25.80
2022-12-04T09:31:14.801Z,19.85
2022-12-04T09:33:42.077Z,19.48
2022-12-04T09:36:15.980Z,28.55
2022-12-04T09:38:51.121Z,26.83
2022-12-04T09:41:36.630Z,24.38
2022-12-04T09:44:08.668Z,21.05
2022-12-04T09:46:51.990Z,25.88
2022-12-04T09:49:41.732Z,23.60
2022-12-04T09:52:44.169Z,19.40
2022-12-04T09:55:20.760Z,19.55
2022-12-04T09:57:51.014Z,20.95
2022-12-04T10:00:20.503Z,18.77
2022-12-04T10:03:03.968Z,18.83
2022-12-04T10:05:58.875Z,18.30
2022-12-04T10:08:38.786Z,18.08
2022-12-04T10:11:33.123Z,16.98
2022-12-04T10:14:26.264Z,18.23
2022-12-04T10:17:16.213Z,24.55
2022-12-04T10:20:11.179Z,21.00
2022-12-04T10:22:57.149Z,20.95
2022-12-04T10:25:27.161Z,22.65
2022-12-04T10:28:33.390Z,24.75
2022-12-04T10:31:04.063Z,22.23
2022-12-04T10:33:45.282Z,29.83
2022-12-04T10:36:16.095Z,47.47
2022-12-04T10:38:49.030Z,58.80
2022-12-04T10:41:22.024Z,43.70
2022-12-04T10:43:50.609Z,59.33
2022-12-04T10:46:34.969Z,63.47
2022-12-04T10:49:10.831Z,50.22
2022-12-04T10:51:43.598Z,56.67
2022-12-04T10:54:21.503Z,45.13
2022-12-04T10:57:03.988Z,47.55
2022-12-04T10:59:31.563Z,75.50
2022-12-04T11:02:22.759Z,65.20
2022-12-04T11:05:08.696Z,79.45
2022-12-04T11:07:49.068Z,67.72
2022-12-04T11:10:36.827Z,63.53
2022-12-04T11:13:16.697Z,47.15
2022-12-04T11:15:47.095Z,37.75
2022-12-04T11:18:31.948Z,42.40
2022-12-04T11:20:59.099Z,40.00
2022-12-04T11:23:29.495Z,35.88
2022-12-04T11:26:05.242Z,30.90
2022-12-04T11:28:41.758Z,25.55
2022-12-04T11:31:16.077Z,24.98
2022-12-04T11:33:49.019Z,22.52
2022-12-04T11:36:23.964Z,25.02
2022-12-04T11:38:53.384Z,27.50
2022-12-04T11:41:30.311Z,21.35
2022-12-04T11:44:00.545Z,20.50
2022-12-04T11:46:34.313Z,20.67
2022-12-04T11:49:03.472Z,20.00
2022-12-04T11:51:36.569Z,16.25
2022-12-04T11:54:13.271Z,18.77
2022-12-04T11:56:45.552Z,17.73
2022-12-04T11:59:22.262Z,20.67
2022-12-04T12:02:13.062Z,16.08
2022-12-04T12:04:51.898Z,19.90
2022-12-04T12:07:19.127Z,17.17
2022-12-04T12:10:01.148Z,15.77
2022-12-04T12:12:37.335Z,16.77
2022-12-04T12:15:25.950Z,15.73
2022-12-04T12:18:20.824Z,17.98
2022-12-04T12:21:12.799Z,17.20
2022-12-04T12:23:52.171Z,19.05
2022-12-04T12:26:19.939Z,16.27
2022-12-04T12:29:23.791Z,19.98
2022-12-04T12:32:05.984Z,17.63
2022-12-04T12:34:39.319Z,18.00
2022-12-04T12:37:26.053Z,20.98
2022-12-04T12:40:07.766Z,15.35
2022-12-04T12:42:53.649Z,20.73
2022-12-04T12:45:23.775Z,19.40
2022-12-04T12:47:56.208Z,22.02
2022-12-04T12:50:30.075Z,17.02
2022-12-04T12:53:05.798Z,20.25
2022-12-04T12:55:50.465Z,25.90
2022-12-04T12:58:37.207Z,25.15
2022-12-04T13:01:19.779Z,25.52
2022-12-04T13:03:55.320Z,29.73
2022-12-04T13:06:28.857Z,28.88
2022-12-04T13:09:14.189Z,31.30
2022-12-04T13:11:43.644Z,40.85
2022-12-04T13:14:14.108Z,32.95
2022-12-04T13:16:56.100Z,26.83
2022-12-04T13:19:25.210Z,23.23
2022-12-04T13:22:11.903Z,23.05
2022-12-04T13:25:00.761Z,31.08
2022-12-04T13:27:27.916Z,32.30
2022-12-04T13:30:06.828Z,29.98
2022-12-04T13:32:50.105Z,37.65
2022-12-04T13:35:46.797Z,24.98
2022-12-04T13:38:19.987Z,24.27
2022-12-04T13:41:04.424Z,24.60
2022-12-04T13:43:46.168Z,21.20
2022-12-04T13:46:34.858Z,27.77
2022-12-04T13:49:31.396Z,26.38
2022-12-04T13:52:00.863Z,21.33
2022-12-04T13:54:36.279Z,30.95
2022-12-04T13:57:15.630Z,23.23
2022-12-04T13:59:43.708Z,18.23
2022-12-04T14:02:32.345Z,28.58
2022-12-04T14:05:03.858Z,18.45
2022-12-04T14:07:42.598Z,22.30
2022-12-04T14:10:16.008Z,24.95
2022-12-04T14:12:59.185Z,18.60
2022-12-04T14:15:30.093Z,17.88
2022-12-04T14:18:11.217Z,15.85
2022-12-04T14:20:39.489Z,18.25
2022-12-04T14:23:34.131Z,17.95
2022-12-04T14:26:03.264Z,17.90
2022-12-04T14:28:41.627Z,21.73
2022-12-04T14:31:28.050Z,21.77
2022-12-04T14:34:02.508Z,24.00
2022-12-04T14:36:43.772Z,27.65
2022-12-04T14:39:36.829Z,24.10
2022-12-04T14:42:22.763Z,35.63
2022-12-04T14:44:55.450Z,33.22
2022-12-04T14:47:41.100Z,35.88
2022-12-04T14:50:19.350Z,53.13
2022-12-04T14:53:08.118Z,67.15
2022-12-04T14:55:47.353Z,71.50
2022-12-04T14:58:30.702Z,72.43
2022-12-04T15:00:59.851Z,79.15
2022-12-04T15:03:30.432Z,69.95
2022-12-04T15:06:07.432Z,69.50
2022-12-04T15:08:35.348Z,56.30
2022-12-04T15:11:25.026Z,52.05
2022-12-04T15:13:52.254Z,43.80
2022-12-04T15:16:22.344Z,47.35
2022-12-04T15:19:00.144Z,36.58
2022-12-04T15:21:39.035Z,35.65
2022-12-04T15:24:24.369Z,30.85
2022-12-04T15:26:55.467Z,31.77
2022-12-04T15:29:28.373Z,32.92
2022-12-04T15:32:00.149Z,43.70
2022-12-04T15:34:55.251Z,37.13
2022-12-04T15:37:28.887Z,23.55
2022-12-04T15:39:57.620Z,28.42
2022-12-04T15:42:27.476Z,43.55
2022-12-04T15:44:54.988Z,25.05
2022-12-04T15:47:25.313Z,19.45
2022-12-04T15:49:52.903Z,19.10
2022-12-04T15:52:22.817Z,18.10
2022-12-04T15:55:09.284Z,23.60
2022-12-04T15:57:42.557Z,14.98
2022-12-04T16:00:22.018Z,13.75
2022-12-04T16:02:49.518Z,11.80
2022-12-04T16:05:25.787Z,14.90
2022-12-04T16:07:58.024Z,13.88
2022-12-04T16:10:31.544Z,13.32
2022-12-04T16:13:01.232Z,12.10
2022-12-04T16:15:37.140Z,14.85
2022-12-04T16:18:08.698Z,21.25
2022-12-04T16:20:37.523Z,15.93
2022-12-04T16:23:05.190Z,16.08
2022-12-04T16:25:32.759Z,18.80
2022-12-04T16:28:01.131Z,21.10
2022-12-04T16:30:32.474Z,22.05
2022-12-04T16:32:59.829Z,23.70
2022-12-04T16:35:27.216Z,19.75
2022-12-04T16:37:54.374Z,22.80
2022-12-04T16:40:21.664Z,15.88
2022-12-04T16:42:48.923Z,17.27
2022-12-04T16:45:29.553Z,19.52
2022-12-04T16:47:58.085Z,17.73
2022-12-04T16:50:27.414Z,16.35
2022-12-04T16:52:55.000Z,16.30
2022-12-04T16:55:26.096Z,19.13
2022-12-04T16:57:53.304Z,23.85
2022-12-04T17:00:20.792Z,23.17
2022-12-04T17:02:48.268Z,17.88
2022-12-04T17:05:24.426Z,18.70
2022-12-04T17:07:52.322Z,19.40
2022-12-04T17:10:23.772Z,17.10
2022-12-04T17:12:55.099Z,24.98
2022-12-04T17:15:22.805Z,16.88
2022-12-04T17:17:50.821Z,16.60
2022-12-04T17:20:21.129Z,25.92
2022-12-04T17:22:48.840Z,26.70
2022-12-04T17:25:17.145Z,26.75
2022-12-04T17:27:44.929Z,27.88
2022-12-04T17:30:12.966Z,22.38
2022-12-04T17:32:40.235Z,27.80
2022-12-04T17:35:08.709Z,38.70
2022-12-04T17:37:36.789Z,25.70
2022-12-04T17:40:05.414Z,43.95
2022-12-04T17:42:32.908Z,29.80
2022-12-04T17:45:00.085Z,31.45
2022-12-04T17:47:27.313Z,72.43
2022-12-04T17:49:54.509Z,37.33
2022-12-04T17:52:22.610Z,40.17
2022-12-04T17:54:52.540Z,35.28
2022-12-04T17:57:21.166Z,36.92
2022-12-04T17:59:48.715Z,59.17
2022-12-04T18:02:16.162Z,42.65
2022-12-04T18:04:43.426Z,48.70
2022-12-04T18:07:10.694Z,45.03
2022-12-04T18:09:38.058Z,52.70
2022-12-04T18:12:05.416Z,33.05
2022-12-04T18:14:34.384Z,31.92
2022-12-04T18:17:02.796Z,28.67
2022-12-04T18:19:30.664Z,36.03
2022-12-04T18:21:58.488Z,27.48
2022-12-04T18:24:26.682Z,25.00
2022-12-04T18:26:54.212Z,23.05
2022-12-04T18:29:25.038Z,27.45
2022-12-04T18:31:52.544Z,30.60
2022-12-04T18:34:20.911Z,38.80
2022-12-04T18:36:49.114Z,44.03
2022-12-04T18:39:19.605Z,44.33
2022-12-04T18:41:47.200Z,57.47
2022-12-04T18:44:14.887Z,54.85
2022-12-04T18:46:42.623Z,54.97
2022-12-04T18:49:10.701Z,57.85
2022-12-04T18:51:48.417Z,52.17
2022-12-04T18:54:19.584Z,46.85
2022-12-04T18:56:47.359Z,107.72
2022-12-04T18:59:17.632Z,58.80
2022-12-04T19:01:49.943Z,31.42
2022-12-04T19:04:19.405Z,39.72
2022-12-04T19:06:52.010Z,46.45
2022-12-04T19:09:40.878Z,61.25
2022-12-04T19:12:11.158Z,70.72
2022-12-04T19:14:39.770Z,46.83
2022-12-04T19:17:07.302Z,43.90
2022-12-04T19:19:34.627Z,35.88
2022-12-04T19:22:02.344Z,29.20
2022-12-04T19:24:29.701Z,30.40
2022-12-04T19:26:56.999Z,24.02
2022-12-04T19:29:24.152Z,27.27
2022-12-04T19:31:56.079Z,25.20
2022-12-04T19:34:26.814Z,25.88
2022-12-04T19:36:55.151Z,24.50
2022-12-04T19:39:22.508Z,25.67
2022-12-04T19:41:50.124Z,27.55
2022-12-04T19:44:47.274Z,18.80
2022-12-04T19:47:04.737Z,24.55
2022-12-04T19:49:32.082Z,19.90
2022-12-04T19:51:59.328Z,17.30
2022-12-04T19:54:27.446Z,18.50
2022-12-04T19:56:54.764Z,19.88
2022-12-04T19:59:23.000Z,23.60
2022-12-04T20:01:50.533Z,27.65
2022-12-04T20:04:18.046Z,21.27
2022-12-04T20:06:46.806Z,22.30
2022-12-04T20:09:20.245Z,24.40
2022-12-04T20:11:48.259Z,23.45
2022-12-04T20:14:15.656Z,20.33
2022-12-04T20:16:43.205Z,25.88
2022-12-04T20:19:14.665Z,29.13
2022-12-04T20:21:42.379Z,25.17
2022-12-04T20:24:11.732Z,22.17
2022-12-04T20:26:40.354Z,20.50
2022-12-04T20:29:09.934Z,23.40
2022-12-04T20:31:40.001Z,19.10
2022-12-04T20:34:11.402Z,21.48
2022-12-04T20:36:44.309Z,21.42
2022-12-04T20:39:13.584Z,26.27
2022-12-04T20:41:41.427Z,23.92
2022-12-04T20:44:12.258Z,23.92
2022-12-04T20:46:40.789Z,19.17
2022-12-04T20:49:15.825Z,17.75
2022-12-04T20:51:48.057Z,19.08
2022-12-04T20:54:20.462Z,15.93
2022-12-04T20:56:49.166Z,22.27
2022-12-04T20:59:18.206Z,17.75
2022-12-04T21:01:46.139Z,23.23
2022-12-04T21:04:13.524Z,20.20
2022-12-04T21:06:41.365Z,24.67
2022-12-04T21:09:13.294Z,32.35
2022-12-04T21:11:47.291Z,25.90
2022-12-04T21:14:38.419Z,25.48
2022-12-04T21:17:07.637Z,27.13
2022-12-04T21:19:35.040Z,20.85
2022-12-04T21:22:02.426Z,21.55
2022-12-04T21:24:32.583Z,21.13
2022-12-04T21:26:59.790Z,22.17
2022-12-04T21:29:27.016Z,24.08
2022-12-04T21:31:54.193Z,19.25
2022-12-04T21:34:22.413Z,29.20
2022-12-04T21:36:49.592Z,22.48
2022-12-04T21:39:16.784Z,27.05
2022-12-04T21:42:02.726Z,23.13
2022-12-04T21:44:30.027Z,25.90
2022-12-04T21:46:57.391Z,21.77
2022-12-04T21:49:24.638Z,26.30
2022-12-04T21:51:59.504Z,21.98
2022-12-04T21:54:27.927Z,22.05
2022-12-04T21:56:56.370Z,23.00
2022-12-04T21:59:25.366Z,24.25
2022-12-04T22:01:55.797Z,27.00
2022-12-04T22:04:23.108Z,31.05
2022-12-04T22:06:50.395Z,28.83
2022-12-04T22:09:18.096Z,23.65
2022-12-04T22:11:45.841Z,28.85
2022-12-04T22:14:13.622Z,26.45
2022-12-04T22:16:43.362Z,27.40
2022-12-04T22:19:12.264Z,25.13
2022-12-04T22:21:40.204Z,25.80
2022-12-04T22:24:10.576Z,28.25
2022-12-04T22:26:38.550Z,26.52
2022-12-04T22:29:27.326Z,20.42
2022-12-04T22:31:53.823Z,25.17
2022-12-04T22:34:21.228Z,24.95
2022-12-04T22:36:49.275Z,28.25
2022-12-04T22:39:16.520Z,24.55
2022-12-04T22:41:43.772Z,29.38
2022-12-04T22:44:11.010Z,26.75
2022-12-04T22:46:38.301Z,33.67
2022-12-04T22:49:05.662Z,28.75
2022-12-04T22:51:32.808Z,28.70
2022-12-04T22:54:00.063Z,28.33
2022-12-04T22:56:29.642Z,25.20
2022-12-04T22:58:58.091Z,25.60
2022-12-04T23:01:27.230Z,22.80
2022-12-04T23:03:55.218Z,25.80
2022-12-04T23:06:24.321Z,39.53
2022-12-04T23:09:00.399Z,29.15
2022-12-04T23:11:28.656Z,29.98
2022-12-04T23:14:02.094Z,36.75
2022-12-04T23:16:31.462Z,30.77
2022-12-04T23:18:59.369Z,39.00
2022-12-04T23:21:27.335Z,31.02
2022-12-04T23:23:55.553Z,33.90
2022-12-04T23:26:29.625Z,28.20
2022-12-04T23:28:57.732Z,32.90
2022-12-04T23:31:25.264Z,35.20
2022-12-04T23:33:52.571Z,30.48
2022-12-04T23:36:20.152Z,34.45
2022-12-04T23:38:47.798Z,35.03
2022-12-04T23:41:21.932Z,33.47
2022-12-04T23:43:50.809Z,38.53
2022-12-04T23:46:30.983Z,28.13
2022-12-04T23:48:59.510Z,31.33
2022-12-04T23:51:27.092Z,33.47
2022-12-04T23:53:54.771Z,29.60
2022-12-04T23:56:24.717Z,29.42
2022-12-04T23:58:54.375Z,25.08
